sensor_id;sensor_type;location;lat;lon;timestamp;P1;durP1;ratioP1;P2;durP2;ratioP2
21087;SDS011;10702;51.516;9.944;2023-02-15T00:01:19;28.63;;;14.50;;
21087;SDS011;10702;51.516;9.944;2023-02-15T00:03:47;25.40;;;13.13;;
21087;SDS011;10702;51.516;9.944;2023-02-15T00:06:14;22.60;;;11.40;;
21087;SDS011;10702;51.516;9.944;2023-02-15T00:08:42;22.57;;;11.17;;
21087;SDS011;10702;51.516;9.944;2023-02-15T00:11:10;22.80;;;11.37;;
21087;SDS011;10702;51.516;9.944;2023-02-15T00:13:38;25.20;;;12.17;;
21087;SDS011;10702;51.516;9.944;2023-02-15T00:16:08;22.93;;;11.83;;
21087;SDS011;10702;51.516;9.944;2023-02-15T00:18:37;28.33;;;13.17;;
21087;SDS011;10702;51.516;9.944;2023-02-15T00:21:05;23.43;;;12.23;;
21087;SDS011;10702;51.516;9.944;2023-02-15T00:23:33;21.40;;;11.63;;
21087;SDS011;10702;51.516;9.944;2023-02-15T00:26:07;22.57;;;10.97;;
21087;SDS011;10702;51.516;9.944;2023-02-15T00:28:35;21.90;;;10.83;;
21087;SDS011;10702;51.516;9.944;2023-02-15T00:31:06;26.33;;;12.87;;
21087;SDS011;10702;51.516;9.944;2023-02-15T00:33:34;24.60;;;12.27;;
21087;SDS011;10702;51.516;9.944;2023-02-15T00:36:03;26.13;;;12.73;;
21087;SDS011;10702;51.516;9.944;2023-02-15T00:38:31;27.27;;;12.87;;
21087;SDS011;10702;51.516;9.944;2023-02-15T00:40:59;27.60;;;13.90;;
21087;SDS011;10702;51.516;9.944;2023-02-15T00:43:27;31.37;;;14.87;;
21087;SDS011;10702;51.516;9.944;2023-02-15T00:45:55;30.87;;;14.83;;
21087;SDS011;10702;51.516;9.944;2023-02-15T00:48:23;31.03;;;16.07;;
21087;SDS011;10702;51.516;9.944;2023-02-15T00:50:51;32.90;;;15.77;;
21087;SDS011;10702;51.516;9.944;2023-02-15T00:53:20;32.10;;;16.37;;
21087;SDS011;10702;51.516;9.944;2023-02-15T00:55:48;38.93;;;17.87;;
21087;SDS011;10702;51.516;9.944;2023-02-15T00:58:15;38.43;;;16.63;;
21087;SDS011;10702;51.516;9.944;2023-02-15T01:00:43;38.10;;;17.37;;
21087;SDS011;10702;51.516;9.944;2023-02-15T01:03:11;37.13;;;15.90;;
21087;SDS011;10702;51.516;9.944;2023-02-15T01:05:39;37.67;;;17.60;;
21087;SDS011;10702;51.516;9.944;2023-02-15T01:08:06;35.70;;;16.10;;
21087;SDS011;10702;51.516;9.944;2023-02-15T01:10:35;38.80;;;17.63;;
21087;SDS011;10702;51.516;9.944;2023-02-15T01:13:03;34.17;;;15.70;;
21087;SDS011;10702;51.516;9.944;2023-02-15T01:15:30;35.93;;;16.30;;
21087;SDS011;10702;51.516;9.944;2023-02-15T01:17:57;33.90;;;15.77;;
21087;SDS011;10702;51.516;9.944;2023-02-15T01:20:25;37.03;;;16.33;;
21087;SDS011;10702;51.516;9.944;2023-02-15T01:22:53;33.20;;;15.53;;
21087;SDS011;10702;51.516;9.944;2023-02-15T01:25:22;35.90;;;16.97;;
21087;SDS011;10702;51.516;9.944;2023-02-15T01:27:51;40.10;;;18.37;;
21087;SDS011;10702;51.516;9.944;2023-02-15T01:30:19;35.67;;;16.63;;
21087;SDS011;10702;51.516;9.944;2023-02-15T01:32:46;34.43;;;15.67;;
21087;SDS011;10702;51.516;9.944;2023-02-15T01:35:13;33.40;;;16.23;;
21087;SDS011;10702;51.516;9.944;2023-02-15T01:37:41;31.00;;;14.17;;
21087;SDS011;10702;51.516;9.944;2023-02-15T01:40:10;30.47;;;15.10;;
21087;SDS011;10702;51.516;9.944;2023-02-15T01:42:39;29.83;;;13.87;;
21087;SDS011;10702;51.516;9.944;2023-02-15T01:45:14;29.73;;;14.67;;
21087;SDS011;10702;51.516;9.944;2023-02-15T01:47:45;28.43;;;14.00;;
21087;SDS011;10702;51.516;9.944;2023-02-15T01:50:15;30.03;;;13.90;;
21087;SDS011;10702;51.516;9.944;2023-02-15T01:52:44;31.07;;;14.87;;
21087;SDS011;10702;51.516;9.944;2023-02-15T01:55:13;26.97;;;13.23;;
21087;SDS011;10702;51.516;9.944;2023-02-15T01:57:40;32.50;;;15.87;;
21087;SDS011;10702;51.516;9.944;2023-02-15T02:00:08;31.90;;;14.40;;
21087;SDS011;10702;51.516;9.944;2023-02-15T02:02:37;29.93;;;14.40;;
21087;SDS011;10702;51.516;9.944;2023-02-15T02:05:05;30.90;;;14.23;;
21087;SDS011;10702;51.516;9.944;2023-02-15T02:07:34;32.10;;;14.70;;
21087;SDS011;10702;51.516;9.944;2023-02-15T02:10:04;29.03;;;13.37;;
21087;SDS011;10702;51.516;9.944;2023-02-15T02:12:32;28.53;;;14.53;;
21087;SDS011;10702;51.516;9.944;2023-02-15T02:15:00;28.33;;;14.07;;
21087;SDS011;10702;51.516;9.944;2023-02-15T02:17:30;28.63;;;13.27;;
21087;SDS011;10702;51.516;9.944;2023-02-15T02:20:08;26.50;;;13.23;;
21087;SDS011;10702;51.516;9.944;2023-02-15T02:22:46;28.07;;;14.03;;
21087;SDS011;10702;51.516;9.944;2023-02-15T02:25:30;27.80;;;13.50;;
21087;SDS011;10702;51.516;9.944;2023-02-15T02:28:07;27.60;;;13.00;;
21087;SDS011;10702;51.516;9.944;2023-02-15T02:36:18;28.13;;;12.97;;
21087;SDS011;10702;51.516;9.944;2023-02-15T02:38:50;28.47;;;13.43;;
21087;SDS011;10702;51.516;9.944;2023-02-15T02:41:21;22.37;;;11.00;;
21087;SDS011;10702;51.516;9.944;2023-02-15T02:43:51;27.40;;;13.40;;
21087;SDS011;10702;51.516;9.944;2023-02-15T02:46:22;31.60;;;15.33;;
21087;SDS011;10702;51.516;9.944;2023-02-15T02:48:52;27.37;;;13.70;;
21087;SDS011;10702;51.516;9.944;2023-02-15T02:51:21;29.20;;;14.27;;
21087;SDS011;10702;51.516;9.944;2023-02-15T02:53:50;31.13;;;14.83;;
21087;SDS011;10702;51.516;9.944;2023-02-15T02:56:20;26.77;;;13.10;;
21087;SDS011;10702;51.516;9.944;2023-02-15T02:58:49;22.23;;;11.13;;
21087;SDS011;10702;51.516;9.944;2023-02-15T03:01:17;24.27;;;12.63;;
21087;SDS011;10702;51.516;9.944;2023-02-15T03:03:48;25.93;;;12.93;;
21087;SDS011;10702;51.516;9.944;2023-02-15T03:06:18;24.50;;;12.17;;
21087;SDS011;10702;51.516;9.944;2023-02-15T03:08:48;23.00;;;11.87;;
21087;SDS011;10702;51.516;9.944;2023-02-15T03:11:17;22.57;;;10.93;;
21087;SDS011;10702;51.516;9.944;2023-02-15T03:13:44;22.67;;;11.20;;
21087;SDS011;10702;51.516;9.944;2023-02-15T03:16:13;26.67;;;13.33;;
21087;SDS011;10702;51.516;9.944;2023-02-15T03:18:54;22.57;;;12.77;;
21087;SDS011;10702;51.516;9.944;2023-02-15T03:21:25;22.90;;;11.33;;
21087;SDS011;10702;51.516;9.944;2023-02-15T03:23:57;23.27;;;12.13;;
21087;SDS011;10702;51.516;9.944;2023-02-15T03:26:25;19.73;;;10.13;;
21087;SDS011;10702;51.516;9.944;2023-02-15T03:28:54;24.67;;;12.67;;
21087;SDS011;10702;51.516;9.944;2023-02-15T03:31:23;23.77;;;12.73;;
21087;SDS011;10702;51.516;9.944;2023-02-15T03:33:53;19.03;;;10.13;;
21087;SDS011;10702;51.516;9.944;2023-02-15T03:36:22;26.37;;;12.60;;
21087;SDS011;10702;51.516;9.944;2023-02-15T03:38:52;22.77;;;11.80;;
21087;SDS011;10702;51.516;9.944;2023-02-15T03:41:27;29.03;;;12.83;;
21087;SDS011;10702;51.516;9.944;2023-02-15T03:43:57;26.43;;;12.80;;
21087;SDS011;10702;51.516;9.944;2023-02-15T03:46:27;22.93;;;11.97;;
21087;SDS011;10702;51.516;9.944;2023-02-15T03:48:56;21.83;;;11.73;;
21087;SDS011;10702;51.516;9.944;2023-02-15T03:51:26;23.50;;;11.73;;
21087;SDS011;10702;51.516;9.944;2023-02-15T03:54:00;26.97;;;12.53;;
21087;SDS011;10702;51.516;9.944;2023-02-15T03:56:30;22.03;;;11.90;;
21087;SDS011;10702;51.516;9.944;2023-02-15T03:58:57;20.57;;;11.17;;
21087;SDS011;10702;51.516;9.944;2023-02-15T04:01:45;23.77;;;11.93;;
21087;SDS011;10702;51.516;9.944;2023-02-15T04:04:26;26.30;;;12.27;;
21087;SDS011;10702;51.516;9.944;2023-02-15T04:06:54;20.63;;;11.57;;
21087;SDS011;10702;51.516;9.944;2023-02-15T04:09:22;29.57;;;13.30;;
21087;SDS011;10702;51.516;9.944;2023-02-15T04:12:08;29.13;;;13.70;;
21087;SDS011;10702;51.516;9.944;2023-02-15T04:14:35;28.43;;;13.30;;
21087;SDS011;10702;51.516;9.944;2023-02-15T04:17:21;28.27;;;12.50;;
21087;SDS011;10702;51.516;9.944;2023-02-15T04:19:48;19.87;;;9.93;;
21087;SDS011;10702;51.516;9.944;2023-02-15T04:22:33;17.50;;;9.50;;
21087;SDS011;10702;51.516;9.944;2023-02-15T04:25:18;24.37;;;12.23;;
21087;SDS011;10702;51.516;9.944;2023-02-15T04:27:49;26.97;;;13.40;;
21087;SDS011;10702;51.516;9.944;2023-02-15T04:30:17;26.13;;;13.37;;
21087;SDS011;10702;51.516;9.944;2023-02-15T04:32:45;24.17;;;13.17;;
21087;SDS011;10702;51.516;9.944;2023-02-15T04:35:13;23.50;;;12.63;;
21087;SDS011;10702;51.516;9.944;2023-02-15T04:37:40;20.37;;;10.97;;
21087;SDS011;10702;51.516;9.944;2023-02-15T04:40:08;21.77;;;10.80;;
21087;SDS011;10702;51.516;9.944;2023-02-15T04:42:36;20.33;;;10.83;;
21087;SDS011;10702;51.516;9.944;2023-02-15T04:45:05;20.37;;;10.67;;
21087;SDS011;10702;51.516;9.944;2023-02-15T04:47:32;20.33;;;10.67;;
21087;SDS011;10702;51.516;9.944;2023-02-15T04:50:00;19.23;;;10.73;;
21087;SDS011;10702;51.516;9.944;2023-02-15T04:52:27;17.50;;;9.07;;
21087;SDS011;10702;51.516;9.944;2023-02-15T04:54:54;19.73;;;10.73;;
21087;SDS011;10702;51.516;9.944;2023-02-15T04:57:22;21.67;;;11.83;;
21087;SDS011;10702;51.516;9.944;2023-02-15T04:59:49;21.47;;;12.30;;
21087;SDS011;10702;51.516;9.944;2023-02-15T05:02:18;19.83;;;10.33;;
21087;SDS011;10702;51.516;9.944;2023-02-15T05:04:45;22.50;;;12.13;;
21087;SDS011;10702;51.516;9.944;2023-02-15T05:07:12;16.97;;;9.50;;
21087;SDS011;10702;51.516;9.944;2023-02-15T05:09:40;22.37;;;11.30;;
21087;SDS011;10702;51.516;9.944;2023-02-15T05:12:08;19.77;;;10.63;;
21087;SDS011;10702;51.516;9.944;2023-02-15T05:14:35;21.93;;;12.10;;
21087;SDS011;10702;51.516;9.944;2023-02-15T05:17:02;20.37;;;11.07;;
21087;SDS011;10702;51.516;9.944;2023-02-15T05:19:32;21.03;;;11.00;;
21087;SDS011;10702;51.516;9.944;2023-02-15T05:22:00;18.57;;;9.97;;
21087;SDS011;10702;51.516;9.944;2023-02-15T05:24:27;21.37;;;11.77;;
21087;SDS011;10702;51.516;9.944;2023-02-15T05:27:12;23.03;;;12.17;;
21087;SDS011;10702;51.516;9.944;2023-02-15T05:29:57;22.07;;;11.53;;
21087;SDS011;10702;51.516;9.944;2023-02-15T05:32:25;22.10;;;11.53;;
21087;SDS011;10702;51.516;9.944;2023-02-15T05:34:54;22.70;;;11.13;;
21087;SDS011;10702;51.516;9.944;2023-02-15T05:37:21;20.30;;;10.20;;
21087;SDS011;10702;51.516;9.944;2023-02-15T05:39:48;20.83;;;11.70;;
21087;SDS011;10702;51.516;9.944;2023-02-15T05:42:16;23.10;;;11.33;;
21087;SDS011;10702;51.516;9.944;2023-02-15T05:44:43;20.50;;;10.53;;
21087;SDS011;10702;51.516;9.944;2023-02-15T05:47:10;20.23;;;11.10;;
21087;SDS011;10702;51.516;9.944;2023-02-15T05:49:38;19.87;;;10.67;;
21087;SDS011;10702;51.516;9.944;2023-02-15T05:52:06;21.03;;;11.00;;
21087;SDS011;10702;51.516;9.944;2023-02-15T05:54:34;18.23;;;9.77;;
21087;SDS011;10702;51.516;9.944;2023-02-15T05:57:01;17.43;;;9.70;;
21087;SDS011;10702;51.516;9.944;2023-02-15T05:59:29;18.43;;;9.83;;
21087;SDS011;10702;51.516;9.944;2023-02-15T06:01:56;17.73;;;10.10;;
21087;SDS011;10702;51.516;9.944;2023-02-15T06:04:24;17.47;;;9.90;;
21087;SDS011;10702;51.516;9.944;2023-02-15T06:06:51;19.30;;;10.63;;
21087;SDS011;10702;51.516;9.944;2023-02-15T06:09:20;21.17;;;11.17;;
21087;SDS011;10702;51.516;9.944;2023-02-15T06:11:47;20.73;;;10.67;;
21087;SDS011;10702;51.516;9.944;2023-02-15T06:14:14;16.20;;;8.90;;
21087;SDS011;10702;51.516;9.944;2023-02-15T06:16:42;19.57;;;11.30;;
21087;SDS011;10702;51.516;9.944;2023-02-15T06:19:09;18.67;;;10.20;;
21087;SDS011;10702;51.516;9.944;2023-02-15T06:21:37;17.73;;;10.00;;
21087;SDS011;10702;51.516;9.944;2023-02-15T06:24:04;21.07;;;10.80;;
21087;SDS011;10702;51.516;9.944;2023-02-15T06:26:33;22.47;;;11.60;;
21087;SDS011;10702;51.516;9.944;2023-02-15T06:29:00;17.47;;;10.13;;
21087;SDS011;10702;51.516;9.944;2023-02-15T06:31:28;20.53;;;11.23;;
21087;SDS011;10702;51.516;9.944;2023-02-15T06:33:55;20.37;;;11.27;;
21087;SDS011;10702;51.516;9.944;2023-02-15T06:36:26;19.80;;;10.67;;
21087;SDS011;10702;51.516;9.944;2023-02-15T06:38:54;19.93;;;10.57;;
21087;SDS011;10702;51.516;9.944;2023-02-15T06:41:22;22.37;;;11.53;;
21087;SDS011;10702;51.516;9.944;2023-02-15T06:43:51;21.53;;;11.50;;
21087;SDS011;10702;51.516;9.944;2023-02-15T06:46:18;18.80;;;9.97;;
21087;SDS011;10702;51.516;9.944;2023-02-15T06:48:46;22.07;;;11.37;;
21087;SDS011;10702;51.516;9.944;2023-02-15T06:51:13;20.20;;;10.63;;
21087;SDS011;10702;51.516;9.944;2023-02-15T06:53:40;17.83;;;9.73;;
21087;SDS011;10702;51.516;9.944;2023-02-15T06:56:09;18.40;;;9.87;;
21087;SDS011;10702;51.516;9.944;2023-02-15T06:58:37;22.43;;;11.70;;
21087;SDS011;10702;51.516;9.944;2023-02-15T07:01:06;18.27;;;10.13;;
21087;SDS011;10702;51.516;9.944;2023-02-15T07:03:33;18.20;;;10.43;;
21087;SDS011;10702;51.516;9.944;2023-02-15T07:06:02;18.00;;;9.73;;
21087;SDS011;10702;51.516;9.944;2023-02-15T07:08:32;17.10;;;9.37;;
21087;SDS011;10702;51.516;9.944;2023-02-15T07:10:59;19.97;;;10.10;;
21087;SDS011;10702;51.516;9.944;2023-02-15T07:13:41;18.40;;;9.97;;
21087;SDS011;10702;51.516;9.944;2023-02-15T07:16:10;19.33;;;10.40;;
21087;SDS011;10702;51.516;9.944;2023-02-15T07:18:37;19.33;;;10.67;;
21087;SDS011;10702;51.516;9.944;2023-02-15T07:21:05;22.83;;;11.80;;
21087;SDS011;10702;51.516;9.944;2023-02-15T07:23:34;17.93;;;9.67;;
21087;SDS011;10702;51.516;9.944;2023-02-15T07:26:01;15.77;;;8.53;;
21087;SDS011;10702;51.516;9.944;2023-02-15T07:28:29;21.47;;;11.43;;
21087;SDS011;10702;51.516;9.944;2023-02-15T07:30:57;18.80;;;10.13;;
21087;SDS011;10702;51.516;9.944;2023-02-15T07:33:26;17.53;;;9.20;;
21087;SDS011;10702;51.516;9.944;2023-02-15T07:35:56;19.33;;;10.13;;
21087;SDS011;10702;51.516;9.944;2023-02-15T07:38:24;19.53;;;10.87;;
21087;SDS011;10702;51.516;9.944;2023-02-15T07:40:56;19.87;;;10.33;;
21087;SDS011;10702;51.516;9.944;2023-02-15T07:43:24;18.97;;;10.33;;
21087;SDS011;10702;51.516;9.944;2023-02-15T07:45:51;18.03;;;10.17;;
21087;SDS011;10702;51.516;9.944;2023-02-15T07:48:19;18.40;;;9.73;;
21087;SDS011;10702;51.516;9.944;2023-02-15T07:50:51;19.10;;;10.10;;
21087;SDS011;10702;51.516;9.944;2023-02-15T07:53:18;18.80;;;9.07;;
21087;SDS011;10702;51.516;9.944;2023-02-15T07:55:46;18.40;;;10.03;;
21087;SDS011;10702;51.516;9.944;2023-02-15T07:58:13;19.73;;;10.37;;
21087;SDS011;10702;51.516;9.944;2023-02-15T08:00:40;17.13;;;9.43;;
21087;SDS011;10702;51.516;9.944;2023-02-15T08:03:22;18.37;;;9.47;;
21087;SDS011;10702;51.516;9.944;2023-02-15T08:05:56;20.70;;;10.47;;
21087;SDS011;10702;51.516;9.944;2023-02-15T08:08:25;18.83;;;10.00;;
21087;SDS011;10702;51.516;9.944;2023-02-15T08:10:58;24.67;;;11.03;;
21087;SDS011;10702;51.516;9.944;2023-02-15T08:13:44;18.20;;;9.50;;
21087;SDS011;10702;51.516;9.944;2023-02-15T08:16:21;17.37;;;9.30;;
21087;SDS011;10702;51.516;9.944;2023-02-15T08:18:49;14.43;;;8.30;;
21087;SDS011;10702;51.516;9.944;2023-02-15T08:21:17;20.03;;;10.73;;
21087;SDS011;10702;51.516;9.944;2023-02-15T08:23:45;19.07;;;10.40;;
21087;SDS011;10702;51.516;9.944;2023-02-15T08:26:13;19.43;;;9.73;;
21087;SDS011;10702;51.516;9.944;2023-02-15T08:28:40;19.33;;;10.03;;
21087;SDS011;10702;51.516;9.944;2023-02-15T08:31:08;16.27;;;9.07;;
21087;SDS011;10702;51.516;9.944;2023-02-15T08:33:36;21.53;;;11.53;;
21087;SDS011;10702;51.516;9.944;2023-02-15T08:36:05;17.93;;;9.27;;
21087;SDS011;10702;51.516;9.944;2023-02-15T08:38:34;17.80;;;9.13;;
21087;SDS011;10702;51.516;9.944;2023-02-15T08:41:08;18.60;;;9.93;;
21087;SDS011;10702;51.516;9.944;2023-02-15T08:43:36;18.63;;;9.67;;
21087;SDS011;10702;51.516;9.944;2023-02-15T08:46:04;17.13;;;9.47;;
21087;SDS011;10702;51.516;9.944;2023-02-15T08:48:32;18.40;;;9.20;;
21087;SDS011;10702;51.516;9.944;2023-02-15T08:51:03;18.13;;;9.70;;
21087;SDS011;10702;51.516;9.944;2023-02-15T08:53:31;18.87;;;9.07;;
21087;SDS011;10702;51.516;9.944;2023-02-15T08:56:00;16.83;;;9.37;;
21087;SDS011;10702;51.516;9.944;2023-02-15T08:58:28;19.20;;;9.83;;
21087;SDS011;10702;51.516;9.944;2023-02-15T09:00:55;19.47;;;10.47;;
21087;SDS011;10702;51.516;9.944;2023-02-15T09:03:22;19.07;;;10.10;;
21087;SDS011;10702;51.516;9.944;2023-02-15T09:05:50;19.73;;;9.93;;
21087;SDS011;10702;51.516;9.944;2023-02-15T09:08:17;17.60;;;9.87;;
21087;SDS011;10702;51.516;9.944;2023-02-15T09:10:45;19.20;;;9.90;;
21087;SDS011;10702;51.516;9.944;2023-02-15T09:13:13;18.60;;;10.10;;
21087;SDS011;10702;51.516;9.944;2023-02-15T09:15:41;17.93;;;9.53;;
21087;SDS011;10702;51.516;9.944;2023-02-15T09:18:08;17.67;;;9.73;;
21087;SDS011;10702;51.516;9.944;2023-02-15T09:20:35;19.40;;;10.87;;
21087;SDS011;10702;51.516;9.944;2023-02-15T09:23:03;20.70;;;10.57;;
21087;SDS011;10702;51.516;9.944;2023-02-15T09:25:30;20.93;;;10.93;;
21087;SDS011;10702;51.516;9.944;2023-02-15T09:27:58;17.87;;;9.77;;
21087;SDS011;10702;51.516;9.944;2023-02-15T09:30:26;18.47;;;10.00;;
21087;SDS011;10702;51.516;9.944;2023-02-15T09:32:54;18.30;;;9.50;;
21087;SDS011;10702;51.516;9.944;2023-02-15T09:35:21;17.40;;;9.03;;
21087;SDS011;10702;51.516;9.944;2023-02-15T09:37:48;19.17;;;10.47;;
21087;SDS011;10702;51.516;9.944;2023-02-15T09:40:16;16.73;;;9.80;;
21087;SDS011;10702;51.516;9.944;2023-02-15T09:43:00;16.03;;;9.43;;
21087;SDS011;10702;51.516;9.944;2023-02-15T09:45:36;17.30;;;9.63;;
21087;SDS011;10702;51.516;9.944;2023-02-15T09:48:09;17.70;;;8.83;;
21087;SDS011;10702;51.516;9.944;2023-02-15T09:50:43;16.47;;;9.70;;
21087;SDS011;10702;51.516;9.944;2023-02-15T09:53:17;15.60;;;9.17;;
21087;SDS011;10702;51.516;9.944;2023-02-15T09:55:49;15.20;;;8.80;;
21087;SDS011;10702;51.516;9.944;2023-02-15T09:58:19;16.13;;;8.97;;
21087;SDS011;10702;51.516;9.944;2023-02-15T10:00:53;15.77;;;9.07;;
21087;SDS011;10702;51.516;9.944;2023-02-15T10:03:25;16.43;;;9.00;;
21087;SDS011;10702;51.516;9.944;2023-02-15T10:06:02;18.03;;;10.00;;
21087;SDS011;10702;51.516;9.944;2023-02-15T10:08:53;15.20;;;9.07;;
21087;SDS011;10702;51.516;9.944;2023-02-15T10:11:24;18.57;;;9.63;;
21087;SDS011;10702;51.516;9.944;2023-02-15T10:14:15;16.77;;;9.60;;
21087;SDS011;10702;51.516;9.944;2023-02-15T10:16:48;16.03;;;9.70;;
21087;SDS011;10702;51.516;9.944;2023-02-15T10:19:20;16.90;;;9.00;;
21087;SDS011;10702;51.516;9.944;2023-02-15T10:21:56;18.67;;;9.40;;
21087;SDS011;10702;51.516;9.944;2023-02-15T10:27:15;15.70;;;8.97;;
21087;SDS011;10702;51.516;9.944;2023-02-15T10:29:47;17.10;;;9.70;;
21087;SDS011;10702;51.516;9.944;2023-02-15T10:32:19;16.57;;;9.97;;
21087;SDS011;10702;51.516;9.944;2023-02-15T10:34:51;17.93;;;10.30;;
21087;SDS011;10702;51.516;9.944;2023-02-15T10:40:11;16.53;;;9.80;;
21087;SDS011;10702;51.516;9.944;2023-02-15T10:42:46;16.90;;;9.67;;
21087;SDS011;10702;51.516;9.944;2023-02-15T10:45:20;16.90;;;9.93;;
21087;SDS011;10702;51.516;9.944;2023-02-15T10:48:05;17.10;;;10.30;;
21087;SDS011;10702;51.516;9.944;2023-02-15T10:50:36;16.80;;;9.73;;
21087;SDS011;10702;51.516;9.944;2023-02-15T10:53:24;17.33;;;10.07;;
21087;SDS011;10702;51.516;9.944;2023-02-15T10:55:55;17.67;;;10.10;;
21087;SDS011;10702;51.516;9.944;2023-02-15T10:58:27;15.27;;;9.40;;
21087;SDS011;10702;51.516;9.944;2023-02-15T11:00:58;18.43;;;10.17;;
21087;SDS011;10702;51.516;9.944;2023-02-15T11:03:41;17.00;;;10.77;;
21087;SDS011;10702;51.516;9.944;2023-02-15T11:06:13;18.63;;;9.47;;
21087;SDS011;10702;51.516;9.944;2023-02-15T11:08:43;17.17;;;10.40;;
21087;SDS011;10702;51.516;9.944;2023-02-15T11:11:12;16.27;;;9.93;;
21087;SDS011;10702;51.516;9.944;2023-02-15T11:13:43;16.30;;;9.80;;
21087;SDS011;10702;51.516;9.944;2023-02-15T11:16:13;14.73;;;8.67;;
21087;SDS011;10702;51.516;9.944;2023-02-15T11:18:46;17.07;;;8.80;;
21087;SDS011;10702;51.516;9.944;2023-02-15T11:21:17;15.00;;;9.03;;
21087;SDS011;10702;51.516;9.944;2023-02-15T11:23:46;14.30;;;8.97;;
21087;SDS011;10702;51.516;9.944;2023-02-15T11:26:15;14.27;;;8.97;;
21087;SDS011;10702;51.516;9.944;2023-02-15T11:28:45;13.13;;;8.07;;
21087;SDS011;10702;51.516;9.944;2023-02-15T11:31:15;15.17;;;9.20;;
21087;SDS011;10702;51.516;9.944;2023-02-15T11:33:45;14.73;;;8.90;;
21087;SDS011;10702;51.516;9.944;2023-02-15T11:36:14;13.97;;;9.10;;
21087;SDS011;10702;51.516;9.944;2023-02-15T11:38:43;13.27;;;8.10;;
21087;SDS011;10702;51.516;9.944;2023-02-15T11:41:13;12.50;;;8.13;;
21087;SDS011;10702;51.516;9.944;2023-02-15T11:43:42;14.63;;;8.93;;
21087;SDS011;10702;51.516;9.944;2023-02-15T11:46:10;13.93;;;8.50;;
21087;SDS011;10702;51.516;9.944;2023-02-15T11:48:38;11.77;;;7.87;;
21087;SDS011;10702;51.516;9.944;2023-02-15T11:51:09;13.13;;;9.10;;
21087;SDS011;10702;51.516;9.944;2023-02-15T11:53:38;13.37;;;8.67;;
21087;SDS011;10702;51.516;9.944;2023-02-15T11:56:11;12.13;;;7.73;;
21087;SDS011;10702;51.516;9.944;2023-02-15T11:58:40;13.13;;;8.53;;
21087;SDS011;10702;51.516;9.944;2023-02-15T12:01:09;13.93;;;9.00;;
21087;SDS011;10702;51.516;9.944;2023-02-15T12:03:42;13.23;;;8.33;;
21087;SDS011;10702;51.516;9.944;2023-02-15T12:06:14;13.00;;;8.53;;
21087;SDS011;10702;51.516;9.944;2023-02-15T12:08:43;12.17;;;8.23;;
21087;SDS011;10702;51.516;9.944;2023-02-15T12:11:15;14.90;;;9.30;;
21087;SDS011;10702;51.516;9.944;2023-02-15T12:13:54;13.33;;;8.67;;
21087;SDS011;10702;51.516;9.944;2023-02-15T12:16:22;13.87;;;8.83;;
21087;SDS011;10702;51.516;9.944;2023-02-15T12:18:49;13.93;;;9.00;;
21087;SDS011;10702;51.516;9.944;2023-02-15T12:21:25;12.93;;;8.90;;
21087;SDS011;10702;51.516;9.944;2023-02-15T12:23:54;12.50;;;8.67;;
21087;SDS011;10702;51.516;9.944;2023-02-15T12:26:25;12.70;;;8.33;;
21087;SDS011;10702;51.516;9.944;2023-02-15T12:28:54;13.77;;;9.07;;
21087;SDS011;10702;51.516;9.944;2023-02-15T12:31:24;13.33;;;9.00;;
21087;SDS011;10702;51.516;9.944;2023-02-15T12:33:54;11.90;;;8.40;;
21087;SDS011;10702;51.516;9.944;2023-02-15T12:36:25;13.03;;;8.13;;
21087;SDS011;10702;51.516;9.944;2023-02-15T12:39:03;11.67;;;8.40;;
21087;SDS011;10702;51.516;9.944;2023-02-15T12:41:30;14.63;;;8.97;;
21087;SDS011;10702;51.516;9.944;2023-02-15T12:44:05;14.17;;;8.07;;
21087;SDS011;10702;51.516;9.944;2023-02-15T12:46:39;13.37;;;8.80;;
21087;SDS011;10702;51.516;9.944;2023-02-15T12:49:11;12.20;;;8.47;;
21087;SDS011;10702;51.516;9.944;2023-02-15T12:51:48;10.67;;;7.80;;
21087;SDS011;10702;51.516;9.944;2023-02-15T12:54:16;12.53;;;8.30;;
21087;SDS011;10702;51.516;9.944;2023-02-15T12:56:48;12.37;;;9.17;;
21087;SDS011;10702;51.516;9.944;2023-02-15T12:59:16;13.45;;;9.15;;
21087;SDS011;10702;51.516;9.944;2023-02-15T13:01:48;10.27;;;7.63;;
21087;SDS011;10702;51.516;9.944;2023-02-15T13:04:18;12.27;;;9.13;;
21087;SDS011;10702;51.516;9.944;2023-02-15T13:06:50;13.20;;;8.67;;
21087;SDS011;10702;51.516;9.944;2023-02-15T13:09:19;14.37;;;9.03;;
21087;SDS011;10702;51.516;9.944;2023-02-15T13:11:47;13.10;;;9.30;;
21087;SDS011;10702;51.516;9.944;2023-02-15T13:14:16;11.33;;;7.63;;
21087;SDS011;10702;51.516;9.944;2023-02-15T13:16:44;10.90;;;8.13;;
21087;SDS011;10702;51.516;9.944;2023-02-15T13:19:14;13.23;;;8.83;;
21087;SDS011;10702;51.516;9.944;2023-02-15T13:21:43;11.65;;;8.45;;
21087;SDS011;10702;51.516;9.944;2023-02-15T13:24:15;11.07;;;7.80;;
21087;SDS011;10702;51.516;9.944;2023-02-15T13:26:45;13.17;;;8.70;;
21087;SDS011;10702;51.516;9.944;2023-02-15T13:29:15;11.18;;;7.88;;
21087;SDS011;10702;51.516;9.944;2023-02-15T13:31:44;11.77;;;8.10;;
21087;SDS011;10702;51.516;9.944;2023-02-15T13:34:13;10.37;;;7.50;;
21087;SDS011;10702;51.516;9.944;2023-02-15T13:36:45;12.13;;;8.35;;
21087;SDS011;10702;51.516;9.944;2023-02-15T13:39:20;11.60;;;7.63;;
21087;SDS011;10702;51.516;9.944;2023-02-15T13:41:51;10.82;;;7.68;;
21087;SDS011;10702;51.516;9.944;2023-02-15T13:44:22;11.05;;;8.35;;
21087;SDS011;10702;51.516;9.944;2023-02-15T13:46:56;13.20;;;8.48;;
21087;SDS011;10702;51.516;9.944;2023-02-15T13:49:31;10.68;;;7.63;;
21087;SDS011;10702;51.516;9.944;2023-02-15T13:52:02;13.18;;;7.60;;
21087;SDS011;10702;51.516;9.944;2023-02-15T13:57:28;10.38;;;7.32;;
21087;SDS011;10702;51.516;9.944;2023-02-15T14:00:03;9.80;;;6.85;;
21087;SDS011;10702;51.516;9.944;2023-02-15T14:02:36;11.00;;;7.57;;
21087;SDS011;10702;51.516;9.944;2023-02-15T14:05:10;10.43;;;7.65;;
21087;SDS011;10702;51.516;9.944;2023-02-15T14:07:49;11.25;;;7.97;;
21087;SDS011;10702;51.516;9.944;2023-02-15T14:10:23;10.57;;;7.32;;
21087;SDS011;10702;51.516;9.944;2023-02-15T14:13:01;11.57;;;7.90;;
21087;SDS011;10702;51.516;9.944;2023-02-15T14:15:34;11.38;;;8.05;;
21087;SDS011;10702;51.516;9.944;2023-02-15T14:18:07;9.73;;;7.13;;
21087;SDS011;10702;51.516;9.944;2023-02-15T14:20:42;13.85;;;8.80;;
21087;SDS011;10702;51.516;9.944;2023-02-15T14:23:12;9.85;;;7.38;;
21087;SDS011;10702;51.516;9.944;2023-02-15T14:25:44;10.23;;;7.40;;
21087;SDS011;10702;51.516;9.944;2023-02-15T14:28:17;9.80;;;7.38;;
21087;SDS011;10702;51.516;9.944;2023-02-15T14:30:48;8.88;;;6.78;;
21087;SDS011;10702;51.516;9.944;2023-02-15T14:33:24;10.57;;;7.45;;
21087;SDS011;10702;51.516;9.944;2023-02-15T14:36:00;11.10;;;8.02;;
21087;SDS011;10702;51.516;9.944;2023-02-15T14:38:33;11.48;;;7.88;;
21087;SDS011;10702;51.516;9.944;2023-02-15T14:41:04;10.80;;;7.20;;
21087;SDS011;10702;51.516;9.944;2023-02-15T14:43:37;10.80;;;7.22;;
21087;SDS011;10702;51.516;9.944;2023-02-15T14:46:10;9.20;;;6.18;;
21087;SDS011;10702;51.516;9.944;2023-02-15T14:48:40;11.35;;;7.63;;
21087;SDS011;10702;51.516;9.944;2023-02-15T14:51:09;9.55;;;6.97;;
21087;SDS011;10702;51.516;9.944;2023-02-15T14:53:38;10.27;;;6.80;;
21087;SDS011;10702;51.516;9.944;2023-02-15T14:56:20;10.35;;;7.65;;
21087;SDS011;10702;51.516;9.944;2023-02-15T14:58:59;9.30;;;7.13;;
21087;SDS011;10702;51.516;9.944;2023-02-15T15:01:28;11.90;;;7.47;;